Time;durP1;ratioP1;P1;durP2;ratioP2;P2;SDS_P1;SDS_P2;PMS_P1;PMS_P2;Temp;Humidity;BMP_temperature;BMP_pressure;BME280_temperature;BME280_humidity;BME280_pressure;Samples;Min_cycle;Max_cycle;Signal;HPM_P1;HPM_P2
2021/11/12 00:04:08;;;;;;;16.85;7.10;;;5.70;99.90;;;;;;5034547;28;20047;-75
2021/11/12 00:12:29;;;;;;;11.83;5.27;;;;;;;;;;5011383;28;20068;-74
2021/11/12 00:14:59;;;;;;;12.65;6.13;;;5.30;99.90;;;;;;5009219;28;20062;-75
2021/11/12 00:17:31;;;;;;;18.38;6.60;;;5.20;99.90;;;;;;5010309;28;20037;-74
2021/11/12 00:20:02;;;;;;;15.45;7.55;;;5.20;99.90;;;;;;5024607;28;20448;-74
2021/11/12 00:22:31;;;;;;;14.43;6.82;;;5.30;99.90;;;;;;5014871;28;20079;-75
2021/11/12 00:25:02;;;;;;;19.27;8.33;;;5.20;99.90;;;;;;5015040;28;20048;-76
2021/11/12 00:30:34;;;;;;;19.13;6.78;;;5.40;99.90;;;;;;5020915;28;20049;-75
2021/11/12 00:33:44;;;;;;;18.55;7.18;;;5.40;99.90;;;;;;5010824;28;20056;-74
2021/11/12 00:36:28;;;;;;;14.95;6.82;;;5.50;99.90;;;;;;5016438;28;20170;-75
2021/11/12 00:38:59;;;;;;;20.57;8.37;;;5.50;99.90;;;;;;5018372;28;20095;-74
2021/11/12 00:41:37;;;;;;;17.95;6.18;;;5.60;99.90;;;;;;5014140;28;20056;-74
2021/11/12 00:44:18;;;;;;;17.55;7.25;;;5.60;99.90;;;;;;5011905;28;20071;-74
2021/11/12 00:46:49;;;;;;;15.07;7.55;;;5.50;99.90;;;;;;5014674;28;20069;-74
2021/11/12 00:49:21;;;;;;;16.98;6.82;;;5.60;99.90;;;;;;5032368;28;20048;-75
2021/11/12 00:51:52;;;;;;;14.60;7.40;;;5.70;99.90;;;;;;5017853;28;20057;-75
2021/11/12 00:54:21;;;;;;;13.07;6.53;;;5.80;99.90;;;;;;5028717;28;20056;-75
2021/11/12 00:56:52;;;;;;;16.30;7.65;;;5.50;99.90;;;;;;5017124;28;20044;-75
2021/11/12 00:59:22;;;;;;;13.70;6.85;;;5.60;99.90;;;;;;5017291;28;20178;-76
2021/11/12 01:01:54;;;;;;;11.57;6.00;;;5.70;99.90;;;;;;5015159;28;20059;-75
2021/11/12 01:04:25;;;;;;;16.47;6.67;;;5.60;99.90;;;;;;5014250;28;20052;-75
2021/11/12 01:06:54;;;;;;;12.40;5.97;;;5.50;99.90;;;;;;5033212;28;20162;-74
2021/11/12 01:09:23;;;;;;;13.13;5.80;;;5.50;99.90;;;;;;5046299;28;20048;-74
2021/11/12 01:11:52;;;;;;;12.48;6.10;;;5.40;99.90;;;;;;5043382;28;20126;-75
2021/11/12 01:14:26;;;;;;;15.60;6.47;;;5.20;99.90;;;;;;5032511;28;20052;-74
2021/11/12 01:16:56;;;;;;;13.87;7.10;;;5.10;99.90;;;;;;5030004;28;20518;-74
2021/11/12 01:19:28;;;;;;;12.10;6.07;;;5.10;99.90;;;;;;5034650;28;20060;-74
2021/11/12 01:21:57;;;;;;;12.52;5.50;;;5.20;99.90;;;;;;5039316;28;20044;-74
2021/11/12 01:24:27;;;;;;;10.30;5.47;;;4.90;99.90;;;;;;5032854;28;20103;-75
2021/11/12 01:26:56;;;;;;;12.23;6.80;;;5.10;99.90;;;;;;5032551;28;20102;-74
2021/11/12 01:29:26;;;;;;;11.27;4.93;;;4.90;99.90;;;;;;5029619;28;20531;-74
2021/11/12 01:31:55;;;;;;;14.63;6.43;;;4.90;99.90;;;;;;5041523;28;20049;-75
2021/11/12 01:34:24;;;;;;;17.15;6.32;;;4.80;99.90;;;;;;5048930;28;20056;-75
2021/11/12 01:36:52;;;;;;;19.40;7.18;;;4.70;99.90;;;;;;5035170;28;20448;-75
2021/11/12 01:39:22;;;;;;;14.55;6.47;;;4.60;99.90;;;;;;5037253;28;20048;-76
2021/11/12 01:41:58;;;;;;;16.47;7.17;;;4.70;99.90;;;;;;5035278;28;20040;-76
2021/11/12 01:44:32;;;;;;;13.85;6.10;;;4.60;99.90;;;;;;5037569;28;20506;-75
2021/11/12 01:47:13;;;;;;;13.32;6.38;;;4.60;99.90;;;;;;5033526;28;20060;-75
2021/11/12 01:49:43;;;;;;;16.15;7.55;;;4.70;99.90;;;;;;5029835;28;20546;-76
2021/11/12 01:52:16;;;;;;;13.68;5.72;;;4.70;99.90;;;;;;5027620;28;20052;-76
2021/11/12 01:54:59;;;;;;;11.47;5.27;;;4.70;99.90;;;;;;5040982;28;20518;-74
2021/11/12 02:00:22;;;;;;;15.10;7.38;;;4.50;99.90;;;;;;5036872;28;20055;-75
2021/11/12 02:02:56;;;;;;;17.83;7.72;;;4.30;99.90;;;;;;5028246;28;20102;-75
2021/11/12 02:05:27;;;;;;;14.02;6.20;;;4.30;99.90;;;;;;5032146;28;20098;-75
2021/11/12 02:07:56;;;;;;;10.90;5.13;;;4.50;99.90;;;;;;5029240;28;20056;-75
2021/11/12 02:10:27;;;;;;;15.88;7.18;;;4.40;99.90;;;;;;5037905;28;20059;-75
2021/11/12 02:13:03;;;;;;;15.27;6.40;;;4.40;99.90;;;;;;5030683;28;20079;-76
2021/11/12 02:15:38;;;;;;;15.20;6.25;;;4.50;99.90;;;;;;5029551;28;20048;-75
2021/11/12 02:18:13;;;;;;;15.73;6.20;;;4.60;99.90;;;;;;5041605;28;20538;-75
2021/11/12 02:20:53;;;;;;;10.97;6.30;;;4.60;99.90;;;;;;5044080;28;20101;-75
2021/11/12 02:23:28;;;;;;;14.02;6.00;;;4.60;99.90;;;;;;5036230;28;20111;-75
2021/11/12 02:25:59;;;;;;;14.35;6.93;;;4.60;99.90;;;;;;5036526;28;20458;-75
2021/11/12 02:28:29;;;;;;;13.10;5.50;;;4.60;99.90;;;;;;5030091;28;20067;-75
2021/11/12 02:30:59;;;;;;;11.90;5.63;;;4.60;99.90;;;;;;5035255;28;20072;-75
2021/11/12 02:33:28;;;;;;;12.23;6.37;;;4.70;99.90;;;;;;5033576;28;20355;-75
2021/11/12 02:36:06;;;;;;;10.82;5.63;;;4.90;99.90;;;;;;5040235;28;20055;-76
2021/11/12 02:38:36;;;;;;;13.35;6.75;;;4.80;99.90;;;;;;5026992;28;20063;-75
2021/11/12 02:41:05;;;;;;;14.48;5.53;;;4.80;99.90;;;;;;5040348;28;20045;-75
2021/11/12 02:43:36;;;;;;;18.23;6.25;;;4.90;99.90;;;;;;5040873;28;20101;-76
2021/11/12 02:46:08;;;;;;;13.00;5.83;;;5.00;99.90;;;;;;5037530;28;20044;-75
2021/11/12 02:48:40;;;;;;;14.00;6.43;;;4.90;99.90;;;;;;5032408;28;20053;-75
2021/11/12 02:51:12;;;;;;;11.52;5.40;;;4.90;99.90;;;;;;5027022;28;20088;-75
2021/11/12 02:54:10;;;;;;;10.40;4.97;;;4.80;99.90;;;;;;5057854;28;20114;-75
2021/11/12 02:56:39;;;;;;;10.15;4.13;;;5.00;99.90;;;;;;5040727;28;20083;-75
2021/11/12 02:59:10;;;;;;;9.30;5.47;;;4.80;99.90;;;;;;5042192;28;20048;-75
2021/11/12 03:01:47;;;;;;;9.98;5.03;;;4.40;99.90;;;;;;5047311;28;20051;-75
2021/11/12 03:04:19;;;;;;;9.25;3.85;;;4.60;99.90;;;;;;5037782;28;20130;-75
2021/11/12 03:06:50;;;;;;;10.15;4.43;;;4.60;99.90;;;;;;5025814;28;20053;-75
2021/11/12 03:09:24;;;;;;;11.13;4.80;;;4.80;99.90;;;;;;5014356;28;20059;-75
2021/11/12 03:11:54;;;;;;;10.23;4.87;;;4.80;99.90;;;;;;5029637;28;20060;-75
2021/11/12 03:14:23;;;;;;;8.63;3.97;;;5.00;99.90;;;;;;5031060;28;20045;-75
2021/11/12 03:16:53;;;;;;;10.90;4.60;;;5.00;99.90;;;;;;5016709;28;20127;-75
2021/11/12 03:19:28;;;;;;;8.55;3.90;;;5.00;99.90;;;;;;5022704;28;20053;-75
2021/11/12 03:22:03;;;;;;;5.38;2.92;;;4.80;99.90;;;;;;5021107;28;20048;-75
2021/11/12 03:24:34;;;;;;;7.63;3.60;;;4.60;99.90;;;;;;5027482;28;20078;-76
2021/11/12 03:27:13;;;;;;;9.82;3.92;;;4.60;99.90;;;;;;5014496;28;20076;-75
2021/11/12 04:00:45;;;;;;;8.05;4.07;;;4.90;99.90;;;;;;5026441;28;20174;-75
2021/11/12 04:03:18;;;;;;;7.35;3.92;;;5.00;99.90;;;;;;5022101;28;20040;-76
2021/11/12 04:19:58;;;;;;;4.95;2.40;;;4.50;99.90;;;;;;5033758;28;19931;-75
2021/11/12 05:10:09;;;;;;;7.35;3.40;;;5.80;99.90;;;;;;5024862;28;20056;-75
2021/11/12 05:43:50;;;;;;;18.48;7.18;;;6.10;99.90;;;;;;5037288;28;20056;-87
2021/11/12 05:46:24;;;;;;;13.53;5.87;;;6.30;99.90;;;;;;5037602;28;20053;-89
2021/11/12 05:51:46;;;;;;;6.15;3.08;;;6.60;99.90;;;;;;5074846;28;20052;-90
2021/11/12 05:57:05;;;;;;;8.48;3.40;;;6.20;99.90;;;;;;5056537;28;20459;-91
2021/11/12 05:59:33;;;;;;;7.80;3.83;;;6.00;99.90;;;;;;5052046;28;20063;-78
2021/11/12 06:02:05;;;;;;;6.88;3.28;;;6.20;99.90;;;;;;5050646;28;20648;-87
2021/11/12 06:07:29;;;;;;;6.03;3.28;;;5.70;99.90;;;;;;5061231;28;20096;-88
2021/11/12 10:51:24;;;;;;;13.20;5.10;;;7.50;99.90;;;;;;5093054;27;1913165;-96
2021/11/12 10:53:57;;;;;;;9.68;4.07;;;7.20;99.90;;;;;;5121347;28;20027;-96
2021/11/12 10:56:48;;;;;;;10.13;4.82;;;7.10;99.90;;;;;;5117723;28;20043;-96
2021/11/12 10:59:16;;;;;;;9.65;4.43;;;6.90;99.90;;;;;;5100988;28;20538;-96
2021/11/12 11:01:49;;;;;;;11.20;5.18;;;6.90;99.90;;;;;;5087836;28;20049;-96
2021/11/12 11:04:22;;;;;;;9.40;4.57;;;6.90;99.90;;;;;;5080517;28;20126;-96
2021/11/12 11:06:53;;;;;;;8.45;4.03;;;7.00;99.90;;;;;;5099108;28;20055;-96
2021/11/12 11:09:36;;;;;;;11.80;4.35;;;7.00;99.90;;;;;;5094361;28;20052;-96
2021/11/12 11:12:06;;;;;;;11.77;4.85;;;6.80;99.90;;;;;;5083780;28;20109;-95
2021/11/12 11:15:33;;;;;;;16.15;4.70;;;6.80;99.90;;;;;;5099938;28;20053;-96
2021/11/12 11:18:23;;;;;;;10.70;4.23;;;6.70;99.90;;;;;;5090232;28;20415;-96
2021/11/12 11:20:57;;;;;;;12.00;4.97;;;6.70;99.90;;;;;;5089613;28;20130;-96
2021/11/12 11:23:29;;;;;;;15.02;5.78;;;6.80;99.90;;;;;;5089108;28;20062;-96
2021/11/12 11:26:01;;;;;;;11.00;4.55;;;7.00;99.90;;;;;;5093804;28;20114;-96
2021/11/12 11:28:36;;;;;;;13.40;4.43;;;7.10;99.90;;;;;;5086737;28;20055;-96
2021/11/12 11:31:11;;;;;;;10.50;4.60;;;7.20;99.90;;;;;;5087527;28;20047;-94
2021/11/12 11:33:43;;;;;;;13.20;5.15;;;7.10;99.90;;;;;;5087886;28;20146;-96
2021/11/12 11:36:13;;;;;;;8.65;4.05;;;7.00;99.90;;;;;;5090643;28;20098;-96
2021/11/12 11:38:44;;;;;;;12.82;5.22;;;6.80;99.90;;;;;;5102194;28;20061;-94
2021/11/12 11:41:15;;;;;;;12.45;4.85;;;6.80;99.90;;;;;;5103841;28;20049;-96
2021/11/12 11:43:45;;;;;;;7.77;3.23;;;6.70;99.90;;;;;;5094539;28;20040;-96
2021/11/12 11:46:17;;;;;;;13.35;4.43;;;6.80;99.90;;;;;;5111237;28;20027;-95
2021/11/12 11:48:47;;;;;;;13.13;4.57;;;6.80;99.90;;;;;;5117991;28;20040;-95
2021/11/12 11:51:29;;;;;;;16.90;5.53;;;6.90;99.90;;;;;;5105903;28;20105;-96
2021/11/12 11:54:05;;;;;;;10.20;3.90;;;7.00;99.90;;;;;;5099604;28;20051;-96
2021/11/12 11:56:36;;;;;;;11.47;5.10;;;7.00;99.90;;;;;;5102439;28;20185;-95
2021/11/12 11:59:11;;;;;;;12.05;4.13;;;7.10;99.90;;;;;;5111242;28;20117;-96
2021/11/12 12:01:47;;;;;;;11.13;4.93;;;7.10;99.90;;;;;;5081327;28;20059;-95
2021/11/12 12:04:43;;;;;;;12.35;4.25;;;7.30;99.90;;;;;;5073564;28;20132;-96
2021/11/12 12:07:25;;;;;;;11.50;4.80;;;7.30;99.90;;;;;;5074685;28;20052;-95
2021/11/12 12:10:16;;;;;;;11.13;4.23;;;7.30;99.90;;;;;;5077722;28;20066;-96
2021/11/12 12:13:00;;;;;;;9.30;4.53;;;7.40;99.90;;;;;;5075371;28;20076;-95
2021/11/12 12:15:40;;;;;;;10.05;4.38;;;7.50;99.90;;;;;;5065293;28;20072;-95
2021/11/12 12:18:13;;;;;;;12.30;5.68;;;7.50;99.90;;;;;;5073622;28;20056;-96
2021/11/12 12:20:58;;;;;;;11.23;4.60;;;7.40;99.90;;;;;;5068693;28;20052;-95
2021/11/12 12:35:03;;;;;;;11.18;4.70;;;7.40;99.90;;;;;;5089964;28;20048;-96
2021/11/12 13:20:43;;;;;;;8.40;4.87;;;7.40;99.90;;;;;;5074803;28;20047;-94
2021/11/12 13:23:27;;;;;;;9.05;4.82;;;7.40;99.90;;;;;;5072256;28;20051;-94
2021/11/12 13:25:59;;;;;;;9.60;4.75;;;7.40;99.90;;;;;;5073359;28;20047;-94
2021/11/12 13:28:29;;;;;;;11.25;4.53;;;7.40;99.90;;;;;;5074370;28;20075;-95
2021/11/12 13:31:05;;;;;;;9.35;4.75;;;7.50;99.90;;;;;;5065446;28;20044;-95
2021/11/12 13:33:42;;;;;;;11.63;4.97;;;7.40;99.90;;;;;;5069605;28;20055;-94
2021/11/12 13:36:21;;;;;;;10.93;4.75;;;7.30;99.90;;;;;;5084938;28;20062;-95
2021/11/12 13:38:54;;;;;;;9.43;4.22;;;7.30;99.90;;;;;;5098957;28;20043;-95
2021/11/12 13:41:27;;;;;;;7.90;4.18;;;7.30;99.90;;;;;;5079592;28;20066;-94
2021/11/12 13:44:06;;;;;;;9.82;4.05;;;7.40;99.90;;;;;;5062369;28;20064;-95
2021/11/12 13:46:44;;;;;;;13.07;4.63;;;7.40;99.90;;;;;;5075744;28;20069;-95
2021/11/12 13:49:30;;;;;;;8.32;3.65;;;7.30;99.90;;;;;;5070117;28;20043;-95
2021/11/12 13:52:02;;;;;;;7.43;3.90;;;7.30;99.90;;;;;;5074269;28;20048;-95
2021/11/12 13:54:32;;;;;;;8.93;4.38;;;7.40;99.90;;;;;;5076324;28;20048;-96
2021/11/12 13:57:10;;;;;;;11.10;4.25;;;7.50;99.90;;;;;;5072850;28;20043;-95
2021/11/12 13:59:51;;;;;;;10.00;4.23;;;7.50;99.90;;;;;;5064517;28;20124;-95
2021/11/12 14:02:23;;;;;;;13.70;4.82;;;7.50;99.90;;;;;;5070776;28;20051;-94
2021/11/12 14:04:55;;;;;;;12.88;4.70;;;7.60;99.90;;;;;;5071824;28;20044;-95
2021/11/12 14:07:25;;;;;;;8.55;4.65;;;7.50;99.90;;;;;;5069066;28;20062;-96
2021/11/12 14:10:05;;;;;;;8.52;4.30;;;7.60;99.90;;;;;;5062801;28;20051;-96
2021/11/12 14:12:34;;;;;;;10.70;4.70;;;7.60;99.90;;;;;;5076315;28;20056;-94
2021/11/12 14:15:13;;;;;;;10.63;3.75;;;7.50;99.90;;;;;;5068899;28;20048;-95
2021/11/12 14:17:53;;;;;;;8.98;4.13;;;7.60;99.90;;;;;;5070857;28;20071;-95
2021/11/12 14:20:30;;;;;;;11.80;4.43;;;7.60;99.90;;;;;;5072232;28;20052;-91
2021/11/12 14:23:10;;;;;;;11.55;5.03;;;7.50;99.90;;;;;;5064915;28;20324;-86
2021/11/12 14:26:07;;;;;;;9.80;4.53;;;7.60;99.90;;;;;;5076138;28;20051;-92
2021/11/12 14:28:42;;;;;;;11.13;5.00;;;7.50;99.90;;;;;;5066758;28;20039;-86
2021/11/12 14:31:20;;;;;;;11.82;5.07;;;7.40;99.90;;;;;;5065192;28;20189;-88
2021/11/12 14:34:06;;;;;;;13.05;4.55;;;7.40;99.90;;;;;;5070275;28;20259;-92
2021/11/12 14:36:48;;;;;;;11.90;5.25;;;7.50;99.90;;;;;;5070242;28;20510;-88
2021/11/12 14:39:33;;;;;;;9.27;4.53;;;7.60;99.90;;;;;;5064730;28;20363;-83
2021/11/12 14:43:04;;;;;;;12.38;4.55;;;7.60;99.90;;;;;;5072361;28;20081;-82
2021/11/12 14:45:40;;;;;;;9.00;4.18;;;7.60;99.90;;;;;;5085097;28;20051;-84
2021/11/12 14:48:22;;;;;;;10.48;4.72;;;7.60;99.90;;;;;;5086622;28;20101;-83
2021/11/12 14:51:00;;;;;;;9.85;4.38;;;7.50;99.90;;;;;;5067579;28;20064;-83
2021/11/12 14:53:39;;;;;;;8.33;3.80;;;7.50;99.90;;;;;;5093260;28;20172;-82
2021/11/12 14:56:11;;;;;;;11.82;4.60;;;7.70;99.90;;;;;;5080377;28;20056;-82
2021/11/12 14:58:43;;;;;;;9.38;4.45;;;7.90;99.90;;;;;;5079127;28;20507;-82
2021/11/12 15:01:14;;;;;;;9.80;4.80;;;7.60;99.90;;;;;;5076435;28;20049;-82
2021/11/12 15:03:43;;;;;;;9.50;4.53;;;7.60;99.90;;;;;;5076760;28;20560;-81
2021/11/12 15:06:13;;;;;;;11.40;4.97;;;7.60;99.90;;;;;;5080836;28;20058;-82
2021/11/12 15:08:47;;;;;;;10.88;3.88;;;7.60;99.90;;;;;;5054882;28;20691;-82
2021/11/12 15:11:18;;;;;;;12.50;4.95;;;7.60;99.90;;;;;;5078214;28;20036;-81
2021/11/12 15:13:48;;;;;;;12.95;4.78;;;7.80;99.90;;;;;;5072350;28;20040;-82
2021/11/12 15:16:20;;;;;;;8.82;4.10;;;7.60;99.90;;;;;;5082031;28;20067;-82
2021/11/12 15:18:54;;;;;;;7.37;3.90;;;7.60;99.90;;;;;;5077720;28;20447;-81
2021/11/12 15:21:26;;;;;;;11.30;4.57;;;7.60;99.90;;;;;;5077742;28;20144;-80
2021/11/12 15:24:06;;;;;;;8.27;4.57;;;7.50;99.90;;;;;;5079757;28;20044;-81
2021/11/12 15:26:45;;;;;;;9.85;4.88;;;7.50;99.90;;;;;;5075063;28;20132;-81
2021/11/12 15:29:18;;;;;;;8.18;4.25;;;7.60;99.90;;;;;;5066799;28;20166;-81
2021/11/12 15:34:37;;;;;;;15.48;5.35;;;7.40;99.90;;;;;;5074915;28;20063;-83
2021/11/12 15:37:08;;;;;;;9.88;4.60;;;7.50;99.90;;;;;;5081401;28;20068;-80
2021/11/12 15:42:45;;;;;;;11.43;5.07;;;7.60;99.90;;;;;;5072207;28;20051;-85
2021/11/12 15:45:16;;;;;;;9.07;4.13;;;7.40;99.90;;;;;;5066469;28;20064;-89
2021/11/12 15:47:46;;;;;;;12.50;5.82;;;7.40;99.90;;;;;;5074726;28;20056;-86
2021/11/12 15:50:20;;;;;;;8.98;4.50;;;7.50;99.90;;;;;;5091415;28;20143;-85
2021/11/12 15:53:04;;;;;;;11.43;5.13;;;7.50;99.90;;;;;;5061088;28;20059;-87
2021/11/12 15:55:52;;;;;;;14.02;5.57;;;7.50;99.90;;;;;;5066939;28;20072;-86
2021/11/12 16:09:53;;;;;;;10.85;5.63;;;7.40;99.90;;;;;;5016189;28;20135;-86
2021/11/12 16:12:41;;;;;;;17.27;6.27;;;7.30;99.90;;;;;;5065267;28;20097;-88
2021/11/12 16:15:19;;;;;;;15.50;5.82;;;7.20;99.90;;;;;;5070792;28;20094;-88
2021/11/12 16:17:56;;;;;;;11.32;5.28;;;7.30;99.90;;;;;;5075891;28;20048;-92
2021/11/12 16:26:40;;;;;;;13.97;5.53;;;7.30;99.90;;;;;;5085638;28;20052;-90
2021/11/12 16:29:23;;;;;;;14.82;5.90;;;7.30;99.90;;;;;;5069417;28;20056;-86
2021/11/12 16:31:52;;;;;;;12.60;6.20;;;7.30;99.90;;;;;;5089544;28;20066;-92
2021/11/12 16:34:24;;;;;;;14.32;6.32;;;7.30;99.90;;;;;;5069618;28;20060;-86
2021/11/12 16:36:56;;;;;;;14.13;6.50;;;7.30;99.90;;;;;;5085586;28;20124;-78
2021/11/12 16:39:29;;;;;;;15.03;6.40;;;7.30;99.90;;;;;;5087835;28;20079;-78
2021/11/12 16:42:09;;;;;;;15.45;6.65;;;7.30;99.90;;;;;;5089335;28;20482;-86
2021/11/12 16:44:45;;;;;;;14.48;6.90;;;7.20;99.90;;;;;;5074190;28;20046;-85
2021/11/12 16:47:28;;;;;;;15.23;6.88;;;7.20;99.90;;;;;;5071979;28;20432;-84
2021/11/12 16:50:12;;;;;;;11.93;6.57;;;7.40;99.90;;;;;;5036219;28;20094;-84
2021/11/12 16:52:56;;;;;;;16.77;6.60;;;7.30;99.90;;;;;;5010507;28;20057;-85
2021/11/12 16:55:51;;;;;;;14.07;5.72;;;7.20;99.90;;;;;;5013292;28;20041;-84
2021/11/12 16:58:28;;;;;;;17.85;7.35;;;7.20;99.90;;;;;;5021247;28;20046;-85
2021/11/12 17:06:41;;;;;;;18.27;6.57;;;7.20;99.90;;;;;;4991565;28;20069;-84
2021/11/12 17:09:24;;;;;;;12.43;5.40;;;7.30;99.90;;;;;;5019610;28;20159;-84
2021/11/12 17:12:00;;;;;;;17.40;6.68;;;7.20;99.90;;;;;;5024084;28;20052;-84
2021/11/12 17:17:29;;;;;;;14.65;6.18;;;7.20;99.90;;;;;;5007859;28;20061;-83
2021/11/12 17:45:18;;;;;;;13.35;5.45;;;7.60;99.90;;;;;;5011407;28;20053;-84
2021/11/12 17:47:48;;;;;;;11.87;5.50;;;7.40;99.90;;;;;;5029602;28;20053;-85
2021/11/12 17:50:24;;;;;;;21.67;7.07;;;7.40;99.90;;;;;;5025112;28;20061;-85
2021/11/12 18:04:02;;;;;;;15.93;6.07;;;7.50;99.90;;;;;;5028982;28;20057;-84
2021/11/12 18:06:41;;;;;;;14.57;5.95;;;7.60;99.90;;;;;;5031371;28;20136;-85
2021/11/12 21:44:52;;;;;;;10.73;5.25;;;6.40;99.90;;;;;;5035803;28;20415;-85
2021/11/12 21:47:20;;;;;;;11.25;4.85;;;6.50;99.90;;;;;;5074252;28;20064;-86
2021/11/12 21:49:51;;;;;;;13.93;4.18;;;6.60;99.90;;;;;;5063719;28;20056;-82
2021/11/12 21:52:21;;;;;;;12.85;4.57;;;6.60;99.90;;;;;;5038810;28;20076;-84
2021/11/12 21:54:51;;;;;;;13.87;5.70;;;6.60;99.90;;;;;;5029289;28;20048;-84
2021/11/12 21:57:20;;;;;;;10.98;4.35;;;6.60;99.90;;;;;;5028700;28;20089;-84
2021/11/12 21:59:49;;;;;;;17.73;5.32;;;6.60;99.90;;;;;;5031976;28;20113;-84
2021/11/12 22:02:20;;;;;;;12.90;5.15;;;6.70;99.90;;;;;;5033268;28;20150;-84
2021/11/12 22:04:49;;;;;;;14.57;5.20;;;6.60;99.90;;;;;;5033863;28;20048;-85
2021/11/12 22:07:21;;;;;;;9.60;4.20;;;6.60;99.90;;;;;;5048418;28;20152;-85
2021/11/12 22:09:51;;;;;;;13.40;5.78;;;6.80;99.90;;;;;;5034635;28;20060;-85
2021/11/12 22:12:24;;;;;;;13.45;5.22;;;6.70;99.90;;;;;;5029923;28;20557;-84
2021/11/12 22:14:53;;;;;;;11.02;3.97;;;6.60;99.90;;;;;;5028709;28;20554;-85
2021/11/12 22:17:24;;;;;;;10.43;5.25;;;6.70;99.90;;;;;;5046134;28;20067;-85
2021/11/12 22:19:52;;;;;;;15.23;5.13;;;6.60;99.90;;;;;;5029723;28;20044;-84
2021/11/12 22:22:24;;;;;;;13.60;5.30;;;6.60;99.90;;;;;;5031240;28;20135;-85
2021/11/12 22:24:53;;;;;;;15.20;5.32;;;6.70;99.90;;;;;;5046872;28;20055;-84
2021/11/12 22:27:26;;;;;;;11.07;5.13;;;6.70;99.90;;;;;;5024759;28;20051;-84
2021/11/12 22:29:55;;;;;;;12.52;5.63;;;6.70;99.90;;;;;;5046328;28;20061;-83
2021/11/12 22:32:50;;;;;;;16.30;5.60;;;6.70;99.90;;;;;;5040589;28;20048;-83
2021/11/12 22:35:23;;;;;;;12.70;5.30;;;6.70;99.90;;;;;;5024601;28;20051;-84
2021/11/12 22:37:54;;;;;;;14.02;5.68;;;6.60;99.90;;;;;;5068228;28;20045;-84
2021/11/12 22:40:22;;;;;;;16.52;5.00;;;6.70;99.90;;;;;;5044946;28;20045;-85
2021/11/12 22:42:51;;;;;;;10.82;4.53;;;6.50;99.90;;;;;;5036452;28;20055;-86
2021/11/12 22:45:19;;;;;;;13.03;5.43;;;6.40;99.90;;;;;;5048594;28;20105;-85
2021/11/12 22:47:52;;;;;;;12.82;5.68;;;6.30;99.90;;;;;;5048326;28;20029;-88
2021/11/12 22:50:23;;;;;;;14.75;5.60;;;6.30;99.90;;;;;;5051697;28;20072;-85
2021/11/12 22:52:54;;;;;;;11.98;4.60;;;6.30;99.90;;;;;;5064086;28;20082;-85
2021/11/12 22:55:23;;;;;;;19.13;5.45;;;6.40;99.90;;;;;;5041926;28;20049;-86
2021/11/12 22:57:52;;;;;;;11.33;4.73;;;6.30;99.90;;;;;;5048209;28;20056;-86
2021/11/12 23:00:35;;;;;;;12.30;5.55;;;6.40;99.90;;;;;;5051473;28;20046;-86
2021/11/12 23:03:06;;;;;;;15.05;6.07;;;6.40;99.90;;;;;;5051640;28;20049;-86
2021/11/12 23:05:35;;;;;;;16.85;7.07;;;6.40;99.90;;;;;;5070486;28;20060;-86
2021/11/12 23:08:06;;;;;;;17.42;6.35;;;6.30;99.90;;;;;;5058293;28;20029;-87
2021/11/12 23:10:34;;;;;;;17.20;6.73;;;6.30;99.90;;;;;;5079343;28;20045;-86
2021/11/12 23:13:05;;;;;;;15.68;5.70;;;6.30;99.90;;;;;;5047914;28;20056;-86
2021/11/12 23:15:35;;;;;;;17.58;6.05;;;6.30;99.90;;;;;;5042872;28;20064;-84
2021/11/12 23:18:04;;;;;;;22.92;7.53;;;6.30;99.90;;;;;;5043294;28;20106;-84
2021/11/12 23:20:37;;;;;;;19.55;6.53;;;6.30;99.90;;;;;;5076015;28;20053;-86
2021/11/12 23:23:07;;;;;;;20.23;5.50;;;6.30;99.90;;;;;;5062853;28;20073;-85
2021/11/12 23:25:36;;;;;;;14.50;6.88;;;6.30;99.90;;;;;;5036627;28;20759;-86
2021/11/12 23:28:06;;;;;;;17.00;6.35;;;6.40;99.90;;;;;;5034455;28;20057;-85
2021/11/12 23:30:35;;;;;;;13.10;5.97;;;6.40;99.90;;;;;;5034565;28;20041;-85
2021/11/12 23:33:05;;;;;;;20.20;8.23;;;6.30;99.90;;;;;;5031642;28;20128;-86
2021/11/12 23:35:35;;;;;;;13.80;6.40;;;6.30;99.90;;;;;;5022816;28;20050;-86
2021/11/12 23:38:04;;;;;;;14.93;6.63;;;6.40;99.90;;;;;;5047563;28;20136;-86
2021/11/12 23:40:35;;;;;;;20.33;8.45;;;6.40;99.90;;;;;;5045687;28;20113;-85
2021/11/12 23:43:03;;;;;;;16.95;6.88;;;6.30;99.90;;;;;;5028794;28;20063;-86
2021/11/12 23:45:32;;;;;;;15.30;6.65;;;6.30;99.90;;;;;;5048021;28;20049;-85
2021/11/12 23:48:01;;;;;;;16.47;7.10;;;6.20;99.90;;;;;;5029413;28;20583;-84
2021/11/12 23:50:30;;;;;;;15.80;6.55;;;6.20;99.90;;;;;;5026260;28;20724;-85
2021/11/12 23:53:00;;;;;;;13.65;7.53;;;6.20;99.90;;;;;;5030873;28;20128;-86
2021/11/12 23:55:29;;;;;;;21.05;8.32;;;6.20;99.90;;;;;;5044225;28;20045;-86
2021/11/12 23:58:03;;;;;;;18.02;6.57;;;6.30;99.90;;;;;;5030366;28;20111;-85
